sensor_id;sensor_type;location;lat;lon;timestamp;P1;durP1;ratioP1;P2;durP2;ratioP2
20185;SDS011;10252;48.792;8.582;2023-04-25T00:03:32;6.13;;;3.33;;
20185;SDS011;10252;48.792;8.582;2023-04-25T00:08:35;5.13;;;3.25;;
20185;SDS011;10252;48.792;8.582;2023-04-25T00:13:36;5.53;;;3.63;;
20185;SDS011;10252;48.792;8.582;2023-04-25T00:18:37;3.65;;;3.13;;
20185;SDS011;10252;48.792;8.582;2023-04-25T00:23:38;4.63;;;3.35;;
20185;SDS011;10252;48.792;8.582;2023-04-25T00:28:39;4.43;;;3.80;;
20185;SDS011;10252;48.792;8.582;2023-04-25T00:33:41;5.90;;;3.50;;
20185;SDS011;10252;48.792;8.582;2023-04-25T00:38:42;5.22;;;3.80;;
20185;SDS011;10252;48.792;8.582;2023-04-25T00:43:43;3.78;;;3.35;;
20185;SDS011;10252;48.792;8.582;2023-04-25T00:48:45;5.22;;;3.80;;
20185;SDS011;10252;48.792;8.582;2023-04-25T00:53:46;4.45;;;3.70;;
20185;SDS011;10252;48.792;8.582;2023-04-25T00:58:48;6.78;;;3.90;;
20185;SDS011;10252;48.792;8.582;2023-04-25T01:03:51;6.78;;;3.65;;
20185;SDS011;10252;48.792;8.582;2023-04-25T01:08:54;5.10;;;3.60;;
20185;SDS011;10252;48.792;8.582;2023-04-25T01:13:55;6.90;;;4.50;;
20185;SDS011;10252;48.792;8.582;2023-04-25T01:18:56;12.77;;;8.25;;
20185;SDS011;10252;48.792;8.582;2023-04-25T01:23:57;12.10;;;5.43;;
20185;SDS011;10252;48.792;8.582;2023-04-25T01:28:58;5.55;;;4.00;;
20185;SDS011;10252;48.792;8.582;2023-04-25T01:34:00;20.23;;;14.38;;
20185;SDS011;10252;48.792;8.582;2023-04-25T01:39:02;8.77;;;7.15;;
20185;SDS011;10252;48.792;8.582;2023-04-25T01:44:04;13.00;;;7.55;;
20185;SDS011;10252;48.792;8.582;2023-04-25T01:49:05;6.30;;;4.88;;
20185;SDS011;10252;48.792;8.582;2023-04-25T01:54:08;5.03;;;4.53;;
20185;SDS011;10252;48.792;8.582;2023-04-25T01:59:09;9.32;;;4.47;;
20185;SDS011;10252;48.792;8.582;2023-04-25T02:04:19;6.35;;;4.35;;
20185;SDS011;10252;48.792;8.582;2023-04-25T02:09:20;7.32;;;5.28;;
20185;SDS011;10252;48.792;8.582;2023-04-25T02:14:26;6.68;;;4.65;;
20185;SDS011;10252;48.792;8.582;2023-04-25T02:19:35;5.85;;;4.68;;
20185;SDS011;10252;48.792;8.582;2023-04-25T02:24:36;7.55;;;4.70;;
20185;SDS011;10252;48.792;8.582;2023-04-25T02:29:37;5.78;;;5.10;;
20185;SDS011;10252;48.792;8.582;2023-04-25T02:34:38;5.07;;;4.57;;
20185;SDS011;10252;48.792;8.582;2023-04-25T02:39:40;8.23;;;5.22;;
20185;SDS011;10252;48.792;8.582;2023-04-25T02:44:41;12.27;;;6.93;;
20185;SDS011;10252;48.792;8.582;2023-04-25T02:49:42;7.97;;;5.82;;
20185;SDS011;10252;48.792;8.582;2023-04-25T02:54:44;8.98;;;5.53;;
20185;SDS011;10252;48.792;8.582;2023-04-25T02:59:45;8.40;;;7.18;;
20185;SDS011;10252;48.792;8.582;2023-04-25T03:04:46;8.23;;;6.55;;
20185;SDS011;10252;48.792;8.582;2023-04-25T03:09:48;10.65;;;7.63;;
20185;SDS011;10252;48.792;8.582;2023-04-25T03:14:49;9.68;;;6.95;;
20185;SDS011;10252;48.792;8.582;2023-04-25T03:19:50;9.98;;;7.35;;
20185;SDS011;10252;48.792;8.582;2023-04-25T03:24:51;9.88;;;6.40;;
20185;SDS011;10252;48.792;8.582;2023-04-25T03:29:53;9.25;;;6.65;;
20185;SDS011;10252;48.792;8.582;2023-04-25T03:34:54;6.90;;;5.55;;
20185;SDS011;10252;48.792;8.582;2023-04-25T03:39:57;11.75;;;6.90;;
20185;SDS011;10252;48.792;8.582;2023-04-25T03:45:05;10.43;;;7.28;;
20185;SDS011;10252;48.792;8.582;2023-04-25T03:50:07;10.27;;;7.18;;
20185;SDS011;10252;48.792;8.582;2023-04-25T03:55:08;8.55;;;6.85;;
20185;SDS011;10252;48.792;8.582;2023-04-25T04:00:11;11.32;;;7.13;;
20185;SDS011;10252;48.792;8.582;2023-04-25T04:05:15;9.70;;;6.35;;
20185;SDS011;10252;48.792;8.582;2023-04-25T04:10:23;9.18;;;5.97;;
20185;SDS011;10252;48.792;8.582;2023-04-25T04:15:24;9.43;;;6.50;;
20185;SDS011;10252;48.792;8.582;2023-04-25T04:20:25;6.50;;;5.35;;
20185;SDS011;10252;48.792;8.582;2023-04-25T04:25:26;9.43;;;6.68;;
20185;SDS011;10252;48.792;8.582;2023-04-25T04:30:57;8.48;;;7.07;;
20185;SDS011;10252;48.792;8.582;2023-04-25T04:35:59;14.82;;;8.02;;
20185;SDS011;10252;48.792;8.582;2023-04-25T04:41:01;9.85;;;8.18;;
20185;SDS011;10252;48.792;8.582;2023-04-25T04:46:22;12.43;;;9.20;;
20185;SDS011;10252;48.792;8.582;2023-04-25T04:51:47;10.40;;;8.20;;
20185;SDS011;10252;48.792;8.582;2023-04-25T04:57:08;8.77;;;6.15;;
20185;SDS011;10252;48.792;8.582;2023-04-25T05:02:25;11.73;;;8.70;;
20185;SDS011;10252;48.792;8.582;2023-04-25T05:07:41;8.60;;;7.38;;
20185;SDS011;10252;48.792;8.582;2023-04-25T05:13:11;8.25;;;6.70;;
20185;SDS011;10252;48.792;8.582;2023-04-25T05:18:32;15.93;;;10.85;;
20185;SDS011;10252;48.792;8.582;2023-04-25T05:23:48;11.50;;;7.68;;
20185;SDS011;10252;48.792;8.582;2023-04-25T05:29:09;8.95;;;5.88;;
20185;SDS011;10252;48.792;8.582;2023-04-25T05:34:16;5.13;;;3.78;;
20185;SDS011;10252;48.792;8.582;2023-04-25T05:39:24;4.95;;;3.67;;
20185;SDS011;10252;48.792;8.582;2023-04-25T05:44:51;5.82;;;3.42;;
20185;SDS011;10252;48.792;8.582;2023-04-25T05:50:08;6.07;;;3.40;;
20185;SDS011;10252;48.792;8.582;2023-04-25T05:55:25;4.30;;;3.50;;
20185;SDS011;10252;48.792;8.582;2023-04-25T06:00:26;4.40;;;3.08;;
20185;SDS011;10252;48.792;8.582;2023-04-25T06:05:28;4.47;;;3.33;;
20185;SDS011;10252;48.792;8.582;2023-04-25T06:10:29;3.60;;;3.17;;
20185;SDS011;10252;48.792;8.582;2023-04-25T06:15:31;6.75;;;3.58;;
20185;SDS011;10252;48.792;8.582;2023-04-25T06:20:35;3.97;;;3.30;;
20185;SDS011;10252;48.792;8.582;2023-04-25T06:25:36;4.95;;;3.00;;
20185;SDS011;10252;48.792;8.582;2023-04-25T06:30:38;3.67;;;3.25;;
20185;SDS011;10252;48.792;8.582;2023-04-25T06:35:44;3.67;;;3.17;;
20185;SDS011;10252;48.792;8.582;2023-04-25T06:40:47;4.93;;;3.47;;
20185;SDS011;10252;48.792;8.582;2023-04-25T06:45:49;5.80;;;3.17;;
20185;SDS011;10252;48.792;8.582;2023-04-25T06:50:51;9.82;;;4.15;;
20185;SDS011;10252;48.792;8.582;2023-04-25T06:55:53;7.90;;;3.28;;
20185;SDS011;10252;48.792;8.582;2023-04-25T07:00:56;5.55;;;3.90;;
20185;SDS011;10252;48.792;8.582;2023-04-25T07:05:59;3.90;;;3.08;;
20185;SDS011;10252;48.792;8.582;2023-04-25T07:11:01;5.03;;;3.65;;
20185;SDS011;10252;48.792;8.582;2023-04-25T07:16:02;5.47;;;4.13;;
20185;SDS011;10252;48.792;8.582;2023-04-25T07:21:05;6.53;;;4.15;;
20185;SDS011;10252;48.792;8.582;2023-04-25T07:26:08;6.70;;;4.03;;
20185;SDS011;10252;48.792;8.582;2023-04-25T07:31:10;5.63;;;4.22;;
20185;SDS011;10252;48.792;8.582;2023-04-25T07:36:11;6.72;;;4.38;;
20185;SDS011;10252;48.792;8.582;2023-04-25T07:41:13;4.60;;;3.72;;
20185;SDS011;10252;48.792;8.582;2023-04-25T07:46:14;5.88;;;3.25;;
20185;SDS011;10252;48.792;8.582;2023-04-25T07:51:17;5.25;;;3.42;;
20185;SDS011;10252;48.792;8.582;2023-04-25T07:56:20;4.05;;;3.13;;
20185;SDS011;10252;48.792;8.582;2023-04-25T08:01:23;4.55;;;3.53;;
20185;SDS011;10252;48.792;8.582;2023-04-25T08:06:33;4.18;;;3.28;;
20185;SDS011;10252;48.792;8.582;2023-04-25T08:11:41;3.63;;;3.30;;
20185;SDS011;10252;48.792;8.582;2023-04-25T08:16:45;2.67;;;1.92;;
20185;SDS011;10252;48.792;8.582;2023-04-25T08:21:46;2.70;;;1.65;;
20185;SDS011;10252;48.792;8.582;2023-04-25T08:26:53;3.13;;;1.50;;
20185;SDS011;10252;48.792;8.582;2023-04-25T08:31:56;1.35;;;1.23;;
20185;SDS011;10252;48.792;8.582;2023-04-25T08:36:58;0.93;;;0.82;;
20185;SDS011;10252;48.792;8.582;2023-04-25T08:42:14;1.95;;;0.90;;
20185;SDS011;10252;48.792;8.582;2023-04-25T08:47:16;1.30;;;0.80;;
20185;SDS011;10252;48.792;8.582;2023-04-25T08:52:23;0.60;;;0.60;;
20185;SDS011;10252;48.792;8.582;2023-04-25T08:57:26;0.88;;;0.80;;
20185;SDS011;10252;48.792;8.582;2023-04-25T09:02:27;0.88;;;0.85;;
20185;SDS011;10252;48.792;8.582;2023-04-25T09:07:29;1.75;;;0.82;;
20185;SDS011;10252;48.792;8.582;2023-04-25T09:12:30;1.55;;;0.50;;
20185;SDS011;10252;48.792;8.582;2023-04-25T09:17:33;0.98;;;0.68;;
20185;SDS011;10252;48.792;8.582;2023-04-25T09:22:35;0.80;;;0.40;;
20185;SDS011;10252;48.792;8.582;2023-04-25T09:27:37;0.40;;;0.40;;
20185;SDS011;10252;48.792;8.582;2023-04-25T09:32:55;1.08;;;0.80;;
20185;SDS011;10252;48.792;8.582;2023-04-25T09:37:57;1.52;;;1.20;;
20185;SDS011;10252;48.792;8.582;2023-04-25T09:43:22;0.50;;;0.50;;
20185;SDS011;10252;48.792;8.582;2023-04-25T09:48:24;0.20;;;0.20;;
20185;SDS011;10252;48.792;8.582;2023-04-25T09:53:28;0.20;;;0.20;;
20185;SDS011;10252;48.792;8.582;2023-04-25T09:58:42;0.30;;;0.30;;
20185;SDS011;10252;48.792;8.582;2023-04-25T10:03:43;0.28;;;0.20;;
20185;SDS011;10252;48.792;8.582;2023-04-25T10:09:06;0.20;;;0.20;;
20185;SDS011;10252;48.792;8.582;2023-04-25T10:14:08;0.30;;;0.30;;
20185;SDS011;10252;48.792;8.582;2023-04-25T10:19:10;0.30;;;0.28;;
20185;SDS011;10252;48.792;8.582;2023-04-25T10:24:11;0.75;;;0.50;;
20185;SDS011;10252;48.792;8.582;2023-04-25T10:29:13;0.40;;;0.40;;
20185;SDS011;10252;48.792;8.582;2023-04-25T10:34:37;0.30;;;0.30;;
20185;SDS011;10252;48.792;8.582;2023-04-25T10:39:40;0.50;;;0.40;;
20185;SDS011;10252;48.792;8.582;2023-04-25T10:44:41;0.50;;;0.50;;
20185;SDS011;10252;48.792;8.582;2023-04-25T10:50:04;1.50;;;1.20;;
20185;SDS011;10252;48.792;8.582;2023-04-25T10:55:06;0.95;;;0.82;;
20185;SDS011;10252;48.792;8.582;2023-04-25T11:00:08;10.95;;;7.03;;
20185;SDS011;10252;48.792;8.582;2023-04-25T11:05:15;6.43;;;5.70;;
20185;SDS011;10252;48.792;8.582;2023-04-25T11:10:18;7.22;;;5.70;;
20185;SDS011;10252;48.792;8.582;2023-04-25T11:15:19;8.70;;;5.78;;
20185;SDS011;10252;48.792;8.582;2023-04-25T11:20:21;7.57;;;6.82;;
20185;SDS011;10252;48.792;8.582;2023-04-25T11:25:23;6.97;;;6.13;;
20185;SDS011;10252;48.792;8.582;2023-04-25T11:30:26;4.43;;;3.20;;
20185;SDS011;10252;48.792;8.582;2023-04-25T11:35:27;5.55;;;3.30;;
20185;SDS011;10252;48.792;8.582;2023-04-25T11:40:28;5.53;;;4.90;;
20185;SDS011;10252;48.792;8.582;2023-04-25T11:45:31;5.07;;;3.55;;
20185;SDS011;10252;48.792;8.582;2023-04-25T11:50:32;2.42;;;2.22;;
20185;SDS011;10252;48.792;8.582;2023-04-25T11:55:33;2.92;;;1.90;;
20185;SDS011;10252;48.792;8.582;2023-04-25T12:00:36;1.60;;;1.50;;
20185;SDS011;10252;48.792;8.582;2023-04-25T12:05:37;1.60;;;1.50;;
20185;SDS011;10252;48.792;8.582;2023-04-25T12:10:40;1.35;;;1.20;;
20185;SDS011;10252;48.792;8.582;2023-04-25T12:15:41;1.98;;;1.83;;
20185;SDS011;10252;48.792;8.582;2023-04-25T12:20:42;1.27;;;1.17;;
20185;SDS011;10252;48.792;8.582;2023-04-25T12:25:44;3.20;;;2.00;;
20185;SDS011;10252;48.792;8.582;2023-04-25T12:36:04;3.53;;;3.17;;
20185;SDS011;10252;48.792;8.582;2023-04-25T12:41:09;6.38;;;3.83;;
20185;SDS011;10252;48.792;8.582;2023-04-25T12:46:10;4.35;;;3.25;;
20185;SDS011;10252;48.792;8.582;2023-04-25T12:51:11;3.83;;;3.13;;
20185;SDS011;10252;48.792;8.582;2023-04-25T12:56:12;3.97;;;3.22;;
20185;SDS011;10252;48.792;8.582;2023-04-25T13:01:14;4.15;;;2.83;;
20185;SDS011;10252;48.792;8.582;2023-04-25T13:06:15;3.00;;;2.60;;
20185;SDS011;10252;48.792;8.582;2023-04-25T13:11:16;2.90;;;2.33;;
20185;SDS011;10252;48.792;8.582;2023-04-25T13:16:17;3.33;;;2.53;;
20185;SDS011;10252;48.792;8.582;2023-04-25T13:21:20;2.83;;;2.20;;
20185;SDS011;10252;48.792;8.582;2023-04-25T13:26:21;2.95;;;2.60;;
20185;SDS011;10252;48.792;8.582;2023-04-25T13:31:22;3.50;;;2.50;;
20185;SDS011;10252;48.792;8.582;2023-04-25T13:36:24;3.15;;;2.85;;
20185;SDS011;10252;48.792;8.582;2023-04-25T13:41:25;2.78;;;2.47;;
20185;SDS011;10252;48.792;8.582;2023-04-25T13:46:26;3.58;;;2.40;;
20185;SDS011;10252;48.792;8.582;2023-04-25T13:51:28;3.22;;;2.15;;
20185;SDS011;10252;48.792;8.582;2023-04-25T13:56:29;3.17;;;2.53;;
20185;SDS011;10252;48.792;8.582;2023-04-25T14:01:30;2.40;;;2.20;;
20185;SDS011;10252;48.792;8.582;2023-04-25T14:06:34;2.92;;;2.40;;
20185;SDS011;10252;48.792;8.582;2023-04-25T14:11:38;3.85;;;2.47;;
20185;SDS011;10252;48.792;8.582;2023-04-25T14:16:39;2.92;;;2.63;;
20185;SDS011;10252;48.792;8.582;2023-04-25T14:21:40;4.68;;;2.80;;
20185;SDS011;10252;48.792;8.582;2023-04-25T14:26:42;2.85;;;2.55;;
20185;SDS011;10252;48.792;8.582;2023-04-25T14:31:43;3.20;;;2.90;;
20185;SDS011;10252;48.792;8.582;2023-04-25T14:36:45;3.67;;;2.63;;
20185;SDS011;10252;48.792;8.582;2023-04-25T14:41:46;7.15;;;3.58;;
20185;SDS011;10252;48.792;8.582;2023-04-25T14:46:47;2.90;;;2.40;;
20185;SDS011;10252;48.792;8.582;2023-04-25T14:51:48;3.40;;;2.60;;
20185;SDS011;10252;48.792;8.582;2023-04-25T14:56:49;3.63;;;2.67;;
20185;SDS011;10252;48.792;8.582;2023-04-25T15:01:51;3.97;;;2.88;;
20185;SDS011;10252;48.792;8.582;2023-04-25T15:06:53;2.85;;;2.65;;
20185;SDS011;10252;48.792;8.582;2023-04-25T15:11:54;4.50;;;2.92;;
20185;SDS011;10252;48.792;8.582;2023-04-25T15:16:55;3.78;;;2.65;;
20185;SDS011;10252;48.792;8.582;2023-04-25T15:21:56;3.10;;;2.70;;
20185;SDS011;10252;48.792;8.582;2023-04-25T15:27:00;3.63;;;2.70;;
20185;SDS011;10252;48.792;8.582;2023-04-25T15:32:02;3.58;;;2.80;;
20185;SDS011;10252;48.792;8.582;2023-04-25T15:37:03;5.60;;;3.45;;
20185;SDS011;10252;48.792;8.582;2023-04-25T15:42:04;4.47;;;3.20;;
20185;SDS011;10252;48.792;8.582;2023-04-25T15:47:06;4.53;;;2.88;;
20185;SDS011;10252;48.792;8.582;2023-04-25T15:52:07;4.50;;;3.15;;
20185;SDS011;10252;48.792;8.582;2023-04-25T15:57:08;4.47;;;2.90;;
20185;SDS011;10252;48.792;8.582;2023-04-25T16:02:12;5.78;;;4.88;;
20185;SDS011;10252;48.792;8.582;2023-04-25T16:07:13;3.88;;;3.25;;
20185;SDS011;10252;48.792;8.582;2023-04-25T16:12:16;6.13;;;3.45;;
20185;SDS011;10252;48.792;8.582;2023-04-25T16:17:17;7.45;;;2.70;;
20185;SDS011;10252;48.792;8.582;2023-04-25T16:22:18;5.40;;;3.42;;
20185;SDS011;10252;48.792;8.582;2023-04-25T16:27:19;9.45;;;3.85;;
20185;SDS011;10252;48.792;8.582;2023-04-25T16:32:21;3.88;;;3.13;;
20185;SDS011;10252;48.792;8.582;2023-04-25T16:37:23;3.22;;;2.88;;
20185;SDS011;10252;48.792;8.582;2023-04-25T16:42:24;4.82;;;3.20;;
20185;SDS011;10252;48.792;8.582;2023-04-25T16:47:25;4.22;;;3.72;;
20185;SDS011;10252;48.792;8.582;2023-04-25T16:52:26;4.30;;;3.90;;
20185;SDS011;10252;48.792;8.582;2023-04-25T16:57:27;4.38;;;3.90;;
20185;SDS011;10252;48.792;8.582;2023-04-25T17:02:28;6.32;;;3.83;;
20185;SDS011;10252;48.792;8.582;2023-04-25T17:07:29;7.28;;;4.72;;
20185;SDS011;10252;48.792;8.582;2023-04-25T17:12:31;6.45;;;4.90;;
20185;SDS011;10252;48.792;8.582;2023-04-25T17:17:32;12.48;;;9.77;;
20185;SDS011;10252;48.792;8.582;2023-04-25T17:22:33;22.27;;;15.73;;
20185;SDS011;10252;48.792;8.582;2023-04-25T17:27:36;6.53;;;5.10;;
20185;SDS011;10252;48.792;8.582;2023-04-25T17:32:37;6.68;;;4.90;;
20185;SDS011;10252;48.792;8.582;2023-04-25T17:37:38;10.38;;;7.43;;
20185;SDS011;10252;48.792;8.582;2023-04-25T17:42:39;9.55;;;7.00;;
20185;SDS011;10252;48.792;8.582;2023-04-25T17:47:41;9.98;;;5.97;;
20185;SDS011;10252;48.792;8.582;2023-04-25T17:52:42;7.72;;;5.88;;
20185;SDS011;10252;48.792;8.582;2023-04-25T17:57:44;10.23;;;7.55;;
20185;SDS011;10252;48.792;8.582;2023-04-25T18:02:45;6.82;;;4.60;;
20185;SDS011;10252;48.792;8.582;2023-04-25T18:07:47;7.10;;;5.97;;
20185;SDS011;10252;48.792;8.582;2023-04-25T18:12:48;5.28;;;3.67;;
20185;SDS011;10252;48.792;8.582;2023-04-25T18:17:49;4.85;;;4.00;;
20185;SDS011;10252;48.792;8.582;2023-04-25T18:22:53;8.00;;;4.65;;
20185;SDS011;10252;48.792;8.582;2023-04-25T18:27:54;5.55;;;4.53;;
20185;SDS011;10252;48.792;8.582;2023-04-25T18:32:56;7.68;;;5.05;;
20185;SDS011;10252;48.792;8.582;2023-04-25T18:37:57;9.23;;;6.07;;
20185;SDS011;10252;48.792;8.582;2023-04-25T18:42:58;5.45;;;4.10;;
20185;SDS011;10252;48.792;8.582;2023-04-25T18:47:59;10.23;;;6.45;;
20185;SDS011;10252;48.792;8.582;2023-04-25T18:53:00;15.13;;;9.27;;
20185;SDS011;10252;48.792;8.582;2023-04-25T18:58:02;19.50;;;11.93;;
20185;SDS011;10252;48.792;8.582;2023-04-25T19:03:03;8.50;;;5.22;;
20185;SDS011;10252;48.792;8.582;2023-04-25T19:08:04;4.25;;;3.70;;
20185;SDS011;10252;48.792;8.582;2023-04-25T19:13:06;5.35;;;4.13;;
20185;SDS011;10252;48.792;8.582;2023-04-25T19:18:07;3.38;;;3.08;;
20185;SDS011;10252;48.792;8.582;2023-04-25T19:23:08;5.60;;;4.57;;
20185;SDS011;10252;48.792;8.582;2023-04-25T19:28:09;6.05;;;4.55;;
20185;SDS011;10252;48.792;8.582;2023-04-25T19:33:12;5.88;;;5.10;;
20185;SDS011;10252;48.792;8.582;2023-04-25T19:38:14;4.70;;;3.53;;
20185;SDS011;10252;48.792;8.582;2023-04-25T19:43:16;10.38;;;6.35;;
20185;SDS011;10252;48.792;8.582;2023-04-25T19:48:17;8.82;;;5.57;;
20185;SDS011;10252;48.792;8.582;2023-04-25T19:53:18;5.70;;;4.18;;
20185;SDS011;10252;48.792;8.582;2023-04-25T19:58:20;5.88;;;4.28;;
20185;SDS011;10252;48.792;8.582;2023-04-25T20:03:21;6.15;;;5.18;;
20185;SDS011;10252;48.792;8.582;2023-04-25T20:08:22;5.10;;;4.30;;
20185;SDS011;10252;48.792;8.582;2023-04-25T20:13:24;5.55;;;4.97;;
20185;SDS011;10252;48.792;8.582;2023-04-25T20:18:25;9.20;;;6.40;;
20185;SDS011;10252;48.792;8.582;2023-04-25T20:23:26;10.00;;;6.43;;
20185;SDS011;10252;48.792;8.582;2023-04-25T20:28:27;9.88;;;8.07;;
20185;SDS011;10252;48.792;8.582;2023-04-25T20:33:28;8.05;;;5.85;;
20185;SDS011;10252;48.792;8.582;2023-04-25T20:38:29;8.32;;;5.75;;
20185;SDS011;10252;48.792;8.582;2023-04-25T20:43:31;7.53;;;6.38;;
20185;SDS011;10252;48.792;8.582;2023-04-25T20:48:32;6.10;;;4.40;;
20185;SDS011;10252;48.792;8.582;2023-04-25T20:53:34;5.75;;;4.63;;
20185;SDS011;10252;48.792;8.582;2023-04-25T20:58:35;9.35;;;5.75;;
20185;SDS011;10252;48.792;8.582;2023-04-25T21:03:36;8.45;;;5.40;;
20185;SDS011;10252;48.792;8.582;2023-04-25T21:08:37;6.93;;;5.85;;
20185;SDS011;10252;48.792;8.582;2023-04-25T21:13:38;11.82;;;9.07;;
20185;SDS011;10252;48.792;8.582;2023-04-25T21:18:39;10.35;;;7.75;;
20185;SDS011;10252;48.792;8.582;2023-04-25T21:23:41;9.10;;;7.20;;
20185;SDS011;10252;48.792;8.582;2023-04-25T21:28:42;9.55;;;7.43;;
20185;SDS011;10252;48.792;8.582;2023-04-25T21:33:43;8.48;;;6.43;;
20185;SDS011;10252;48.792;8.582;2023-04-25T21:38:44;9.02;;;6.72;;
20185;SDS011;10252;48.792;8.582;2023-04-25T21:43:45;11.20;;;6.45;;
20185;SDS011;10252;48.792;8.582;2023-04-25T21:48:46;7.50;;;5.95;;
20185;SDS011;10252;48.792;8.582;2023-04-25T21:53:47;9.98;;;5.68;;
20185;SDS011;10252;48.792;8.582;2023-04-25T21:58:48;10.27;;;7.30;;
20185;SDS011;10252;48.792;8.582;2023-04-25T22:03:49;8.85;;;6.85;;
20185;SDS011;10252;48.792;8.582;2023-04-25T22:08:50;8.13;;;5.93;;
20185;SDS011;10252;48.792;8.582;2023-04-25T22:13:51;9.27;;;6.93;;
20185;SDS011;10252;48.792;8.582;2023-04-25T22:18:53;12.02;;;6.65;;
20185;SDS011;10252;48.792;8.582;2023-04-25T22:23:55;11.35;;;7.18;;
20185;SDS011;10252;48.792;8.582;2023-04-25T22:28:56;7.32;;;6.07;;
20185;SDS011;10252;48.792;8.582;2023-04-25T22:33:57;7.30;;;5.55;;
20185;SDS011;10252;48.792;8.582;2023-04-25T22:38:58;9.05;;;6.07;;
20185;SDS011;10252;48.792;8.582;2023-04-25T22:43:59;7.40;;;5.68;;
20185;SDS011;10252;48.792;8.582;2023-04-25T22:49:00;9.70;;;6.20;;
20185;SDS011;10252;48.792;8.582;2023-04-25T22:54:01;8.23;;;6.10;;
20185;SDS011;10252;48.792;8.582;2023-04-25T22:59:02;8.02;;;4.93;;
20185;SDS011;10252;48.792;8.582;2023-04-25T23:04:03;9.30;;;5.75;;
20185;SDS011;10252;48.792;8.582;2023-04-25T23:09:06;8.45;;;6.40;;
20185;SDS011;10252;48.792;8.582;2023-04-25T23:14:09;8.07;;;5.90;;
20185;SDS011;10252;48.792;8.582;2023-04-25T23:19:10;7.88;;;5.60;;
20185;SDS011;10252;48.792;8.582;2023-04-25T23:24:11;8.73;;;6.18;;
20185;SDS011;10252;48.792;8.582;2023-04-25T23:29:12;8.73;;;6.10;;
20185;SDS011;10252;48.792;8.582;2023-04-25T23:34:13;8.07;;;6.40;;
20185;SDS011;10252;48.792;8.582;2023-04-25T23:39:14;7.57;;;5.50;;
20185;SDS011;10252;48.792;8.582;2023-04-25T23:44:17;11.48;;;6.65;;
20185;SDS011;10252;48.792;8.582;2023-04-25T23:49:19;7.30;;;5.72;;
20185;SDS011;10252;48.792;8.582;2023-04-25T23:54:20;12.18;;;6.57;;
20185;SDS011;10252;48.792;8.582;2023-04-25T23:59:21;7.70;;;5.53;;
